Time;durP1;ratioP1;P1;durP2;ratioP2;P2;SDS_P1;SDS_P2;PMS_P1;PMS_P2;Temp;Humidity;BMP_temperature;BMP_pressure;BME280_temperature;BME280_humidity;BME280_pressure;Samples;Min_cycle;Max_cycle;Signal;HPM_P1;HPM_P2
2022/04/08 00:02:13;;;;;;;34.70;18.08;;;;;;;;;;5135895;27;20022;-43
2022/04/08 00:04:44;;;;;;;15.73;9.07;;;;;;;;;;5135747;27;20084;-41
2022/04/08 00:07:10;;;;;;;12.70;7.43;;;;;;;;;;5135698;27;20015;-38
2022/04/08 00:09:36;;;;;;;22.23;12.93;;;;;;;;;;5135788;27;20034;-37
2022/04/08 00:12:03;;;;;;;11.63;6.60;;;;;;;;;;5135590;27;20023;-50
2022/04/08 00:14:29;;;;;;;20.77;10.82;;;;;;;;;;5135737;27;20019;-38
2022/04/08 00:16:57;;;;;;;16.00;6.88;;;;;;;;;;5135378;27;20049;-52
2022/04/08 00:19:24;;;;;;;10.77;6.97;;;;;;;;;;5135536;27;20026;-47
2022/04/08 00:21:52;;;;;;;19.38;9.57;;;;;;;;;;5135300;27;20027;-50
2022/04/08 00:24:18;;;;;;;15.45;8.38;;;;;;;;;;5135592;27;20101;-49
2022/04/08 00:26:48;;;;;;;11.75;6.60;;;;;;;;;;5135252;27;20019;-39
2022/04/08 00:29:15;;;;;;;13.20;7.18;;;;;;;;;;5135363;27;20027;-51
2022/04/08 00:31:41;;;;;;;11.60;7.30;;;;;;;;;;5135333;27;20026;-38
2022/04/08 00:34:07;;;;;;;12.18;6.68;;;;;;;;;;5135678;27;20026;-40
2022/04/08 00:36:33;;;;;;;19.88;10.45;;;;;;;;;;5135070;27;20374;-39
2022/04/08 00:38:59;;;;;;;15.25;8.85;;;;;;;;;;5135246;27;20023;-42
2022/04/08 00:41:25;;;;;;;17.50;10.82;;;;;;;;;;5135074;27;20019;-45
2022/04/08 00:43:51;;;;;;;11.35;6.90;;;;;;;;;;5135048;27;20061;-39
2022/04/08 00:46:19;;;;;;;12.38;8.25;;;;;;;;;;5116701;27;20160;-45
2022/04/08 00:48:48;;;;;;;15.10;8.45;;;;;;;;;;5134701;27;20042;-42
2022/04/08 00:51:15;;;;;;;22.33;12.55;;;;;;;;;;5134632;27;20498;-40
2022/04/08 00:53:41;;;;;;;12.55;6.82;;;;;;;;;;5134769;27;20027;-41
2022/04/08 00:56:07;;;;;;;41.13;20.30;;;;;;;;;;5133832;27;20033;-42
2022/04/08 00:58:36;;;;;;;15.60;9.00;;;;;;;;;;5134426;27;20126;-43
2022/04/08 01:01:02;;;;;;;20.98;11.75;;;;;;;;;;5134872;27;20021;-42
2022/04/08 01:03:29;;;;;;;23.02;13.27;;;;;;;;;;5134726;27;20019;-41
2022/04/08 01:05:57;;;;;;;19.55;11.30;;;;;;;;;;5134458;27;20020;-47
2022/04/08 01:08:23;;;;;;;37.60;20.92;;;;;;;;;;5115708;27;20035;-39
2022/04/08 01:10:53;;;;;;;36.63;17.40;;;;;;;;;;5134744;27;20464;-37
2022/04/08 01:13:19;;;;;;;14.55;8.05;;;;;;;;;;5134718;27;20395;-46
2022/04/08 01:15:45;;;;;;;10.23;5.63;;;;;;;;;;5134638;27;20024;-51
2022/04/08 01:18:12;;;;;;;21.73;12.68;;;;;;;;;;5134805;27;20424;-45
2022/04/08 01:20:38;;;;;;;14.38;8.57;;;;;;;;;;5134693;27;20057;-36
2022/04/08 01:23:05;;;;;;;12.75;7.22;;;;;;;;;;5134302;27;20015;-38
2022/04/08 01:25:31;;;;;;;11.93;6.82;;;;;;;;;;5118226;27;20027;-37
2022/04/08 01:27:57;;;;;;;12.43;8.35;;;;;;;;;;5113814;28;20031;-42
2022/04/08 01:30:24;;;;;;;15.73;7.70;;;;;;;;;;5113844;28;20031;-39
2022/04/08 01:32:50;;;;;;;12.93;7.63;;;;;;;;;;5113836;28;20136;-38
2022/04/08 01:35:16;;;;;;;10.27;6.32;;;;;;;;;;5113716;28;20025;-44
2022/04/08 01:37:42;;;;;;;20.27;8.82;;;;;;;;;;5114169;28;20020;-50
2022/04/08 01:40:11;;;;;;;15.98;8.98;;;;;;;;;;5113748;28;20069;-51
2022/04/08 01:42:37;;;;;;;9.65;6.22;;;;;;;;;;5113655;28;20481;-45
2022/04/08 01:45:03;;;;;;;12.07;5.88;;;;;;;;;;5114031;28;20046;-39
2022/04/08 01:47:29;;;;;;;12.45;6.95;;;;;;;;;;5113587;28;20479;-41
2022/04/08 01:49:55;;;;;;;10.48;6.18;;;;;;;;;;5113403;28;20443;-47
2022/04/08 01:52:22;;;;;;;16.45;9.25;;;;;;;;;;5113488;28;20032;-37
2022/04/08 01:54:48;;;;;;;14.80;8.40;;;;;;;;;;5095018;28;20553;-36
2022/04/08 01:57:15;;;;;;;15.07;7.80;;;;;;;;;;5113568;28;20058;-46
2022/04/08 01:59:44;;;;;;;11.18;6.18;;;;;;;;;;5113508;28;20032;-39
2022/04/08 02:02:10;;;;;;;13.75;7.60;;;;;;;;;;5113605;28;20055;-45
2022/04/08 02:04:36;;;;;;;15.63;8.57;;;;;;;;;;5114053;28;20032;-46
2022/04/08 02:07:06;;;;;;;15.30;8.02;;;;;;;;;;5113438;28;20386;-37
2022/04/08 02:09:32;;;;;;;12.95;7.90;;;;;;;;;;5113309;28;20049;-49
2022/04/08 02:11:58;;;;;;;9.00;5.80;;;;;;;;;;5113627;28;20011;-36
2022/04/08 02:14:24;;;;;;;7.53;5.35;;;;;;;;;;5113567;28;20103;-39
2022/04/08 02:16:50;;;;;;;13.95;6.85;;;;;;;;;;5113310;28;20036;-38
2022/04/08 02:19:16;;;;;;;12.55;7.55;;;;;;;;;;5116174;28;20035;-40
2022/04/08 02:21:44;;;;;;;10.07;5.47;;;;;;;;;;5117814;28;20024;-50
2022/04/08 02:24:13;;;;;;;13.70;6.70;;;;;;;;;;5117633;28;20068;-50
2022/04/08 02:26:39;;;;;;;11.20;5.70;;;;;;;;;;5098457;28;20387;-41
2022/04/08 02:29:05;;;;;;;13.82;7.47;;;;;;;;;;5117049;28;20035;-37
2022/04/08 02:31:31;;;;;;;12.93;7.28;;;;;;;;;;5117449;28;20027;-41
2022/04/08 02:33:57;;;;;;;13.20;7.68;;;;;;;;;;5117019;28;20455;-41
2022/04/08 02:36:23;;;;;;;9.23;5.70;;;;;;;;;;5117180;28;20112;-38
2022/04/08 02:38:49;;;;;;;9.93;6.45;;;;;;;;;;5117188;28;20344;-40
2022/04/08 02:41:15;;;;;;;12.35;6.65;;;;;;;;;;5116862;28;20027;-43
2022/04/08 02:43:41;;;;;;;10.23;5.85;;;;;;;;;;5116956;28;20051;-40
2022/04/08 02:46:08;;;;;;;14.50;6.30;;;;;;;;;;5116900;28;20099;-47
2022/04/08 02:48:34;;;;;;;12.70;6.30;;;;;;;;;;5116760;28;20024;-40
2022/04/08 02:51:00;;;;;;;11.20;6.43;;;;;;;;;;5116461;28;20050;-41
2022/04/08 02:53:26;;;;;;;6.97;4.57;;;;;;;;;;5116596;28;20019;-45
2022/04/08 02:55:52;;;;;;;11.18;6.22;;;;;;;;;;5116669;28;20530;-45
2022/04/08 02:58:18;;;;;;;10.48;5.18;;;;;;;;;;5116682;28;20028;-40
2022/04/08 03:00:44;;;;;;;12.30;6.88;;;;;;;;;;5116422;28;20153;-40
2022/04/08 03:03:10;;;;;;;7.55;4.85;;;;;;;;;;5116652;28;20027;-41
2022/04/08 03:05:36;;;;;;;9.40;6.28;;;;;;;;;;5116309;28;20020;-39
2022/04/08 03:08:02;;;;;;;9.57;5.70;;;;;;;;;;5116323;28;20072;-40
2022/04/08 03:10:28;;;;;;;8.82;5.07;;;;;;;;;;5097728;28;20071;-38
2022/04/08 03:12:54;;;;;;;11.15;5.95;;;;;;;;;;5116342;28;20024;-41
2022/04/08 03:15:20;;;;;;;13.85;6.50;;;;;;;;;;5116141;28;20077;-48
2022/04/08 03:17:49;;;;;;;8.75;5.88;;;;;;;;;;5116112;28;20491;-48
2022/04/08 03:20:15;;;;;;;12.80;7.63;;;;;;;;;;5116203;28;20035;-50
2022/04/08 03:22:41;;;;;;;15.40;6.97;;;;;;;;;;5116031;28;20069;-39
2022/04/08 03:25:07;;;;;;;10.27;5.60;;;;;;;;;;5116038;28;20099;-50
2022/04/08 03:27:33;;;;;;;11.93;6.60;;;;;;;;;;5115912;28;20052;-49
2022/04/08 03:29:59;;;;;;;11.00;5.90;;;;;;;;;;5114466;28;20032;-46
2022/04/08 03:32:25;;;;;;;9.85;5.65;;;;;;;;;;5115965;28;20353;-46
2022/04/08 03:34:57;;;;;;;16.15;6.78;;;;;;;;;;5115873;28;20156;-39
2022/04/08 03:37:24;;;;;;;10.40;6.35;;;;;;;;;;5115753;28;20019;-44
2022/04/08 03:39:50;;;;;;;9.27;5.18;;;;;;;;;;5116043;28;20031;-41
2022/04/08 03:42:16;;;;;;;9.52;4.90;;;;;;;;;;5115651;28;20031;-39
2022/04/08 03:44:42;;;;;;;11.90;5.53;;;;;;;;;;5115837;28;20024;-50
2022/04/08 03:47:10;;;;;;;8.18;5.15;;;;;;;;;;5115579;28;20016;-50
2022/04/08 03:49:37;;;;;;;10.77;5.70;;;;;;;;;;5115383;28;20148;-47
2022/04/08 03:52:08;;;;;;;8.80;5.57;;;;;;;;;;5115481;28;20551;-46
2022/04/08 03:54:34;;;;;;;;;;;;;;;;;;5116012;28;20149;-43
2022/04/08 03:57:00;;;;;;;7.25;5.10;;;;;;;;;;5114662;28;19947;-39
2022/04/08 03:59:29;;;;;;;8.15;5.00;;;;;;;;;;5115395;28;20019;-41
2022/04/08 04:01:55;;;;;;;10.23;6.07;;;;;;;;;;5115228;28;20024;-37
2022/04/08 04:04:21;;;;;;;14.13;7.05;;;;;;;;;;5115521;28;20553;-38
2022/04/08 04:06:47;;;;;;;14.40;7.03;;;;;;;;;;5115087;28;20085;-40
2022/04/08 04:09:13;;;;;;;14.77;6.90;;;;;;;;;;5115364;28;20031;-48
2022/04/08 04:11:39;;;;;;;12.40;5.95;;;;;;;;;;5115213;28;20031;-44
2022/04/08 04:14:06;;;;;;;9.18;5.43;;;;;;;;;;5114979;28;20379;-46
2022/04/08 04:16:33;;;;;;;9.43;5.68;;;;;;;;;;5115196;28;20426;-49
2022/04/08 04:18:59;;;;;;;9.48;5.45;;;;;;;;;;5115005;28;20020;-50
2022/04/08 04:21:25;;;;;;;10.88;4.85;;;;;;;;;;5114854;28;20020;-44
2022/04/08 04:23:51;;;;;;;8.20;4.97;;;;;;;;;;5114777;28;20027;-44
2022/04/08 04:26:17;;;;;;;7.22;4.90;;;;;;;;;;5114780;28;20054;-44
2022/04/08 04:28:43;;;;;;;11.68;5.13;;;;;;;;;;5114786;28;20039;-36
2022/04/08 04:31:10;;;;;;;9.35;4.82;;;;;;;;;;5114766;28;20035;-36
2022/04/08 04:33:36;;;;;;;6.82;4.55;;;;;;;;;;5114695;28;20022;-36
2022/04/08 04:36:02;;;;;;;12.05;6.00;;;;;;;;;;5114762;28;20196;-38
2022/04/08 04:38:28;;;;;;;12.30;6.35;;;;;;;;;;5115114;28;20460;-39
2022/04/08 04:40:54;;;;;;;29.35;15.68;;;;;;;;;;5114365;28;20089;-39
2022/04/08 04:43:20;;;;;;;33.13;21.92;;;;;;;;;;5113271;28;20020;-38
2022/04/08 04:45:46;;;;;;;16.85;9.57;;;;;;;;;;5107170;28;20387;-43
2022/04/08 04:48:12;;;;;;;16.27;9.20;;;;;;;;;;5110877;28;20020;-42
2022/04/08 04:50:39;;;;;;;13.80;7.60;;;;;;;;;;5114385;28;20490;-37
2022/04/08 04:53:05;;;;;;;14.93;8.05;;;;;;;;;;5114320;28;20076;-49
2022/04/08 04:55:31;;;;;;;10.82;6.40;;;;;;;;;;5114637;28;20383;-44
2022/04/08 04:57:57;;;;;;;12.77;5.65;;;;;;;;;;5114307;28;20024;-38
2022/04/08 05:00:24;;;;;;;9.45;5.20;;;;;;;;;;5114069;28;20020;-41
2022/04/08 05:02:50;;;;;;;9.45;5.50;;;;;;;;;;5114239;28;20035;-39
2022/04/08 05:05:16;;;;;;;8.77;5.55;;;;;;;;;;5114151;28;20027;-41
2022/04/08 05:07:42;;;;;;;12.98;7.78;;;;;;;;;;5113950;28;20031;-50
2022/04/08 05:10:09;;;;;;;21.60;11.35;;;;;;;;;;5113986;28;20115;-38
2022/04/08 05:12:35;;;;;;;19.20;10.38;;;;;;;;;;5114029;28;20382;-45
2022/04/08 05:15:02;;;;;;;21.85;12.80;;;;;;;;;;5114038;28;20035;-48
2022/04/08 05:17:28;;;;;;;12.32;7.00;;;;;;;;;;5114267;28;20028;-43
2022/04/08 05:19:55;;;;;;;10.55;6.10;;;;;;;;;;5113907;28;20505;-52
2022/04/08 05:22:21;;;;;;;14.02;7.47;;;;;;;;;;5113919;28;20387;-39
2022/04/08 05:24:49;;;;;;;10.68;5.88;;;;;;;;;;5114191;28;20106;-47
2022/04/08 05:27:16;;;;;;;9.77;5.72;;;;;;;;;;5113890;28;20094;-39
2022/04/08 05:29:44;;;;;;;8.98;5.10;;;;;;;;;;5113785;28;20036;-42
2022/04/08 05:32:10;;;;;;;17.70;5.63;;;;;;;;;;5113933;28;20099;-40
2022/04/08 05:34:37;;;;;;;9.50;5.90;;;;;;;;;;5113776;28;20073;-40
2022/04/08 05:37:03;;;;;;;8.40;5.90;;;;;;;;;;5113700;28;20026;-42
2022/04/08 05:39:29;;;;;;;10.10;5.82;;;;;;;;;;5113948;28;20023;-41
2022/04/08 05:41:55;;;;;;;10.18;5.85;;;;;;;;;;5113792;28;20020;-44
2022/04/08 05:44:21;;;;;;;10.07;6.10;;;;;;;;;;5113799;28;20603;-41
2022/04/08 05:46:49;;;;;;;9.25;6.22;;;;;;;;;;5113741;28;20106;-38
2022/04/08 05:49:16;;;;;;;8.77;5.70;;;;;;;;;;5113533;28;20052;-39
2022/04/08 05:51:42;;;;;;;10.15;5.43;;;;;;;;;;5113319;28;20046;-39
2022/04/08 05:54:08;;;;;;;9.10;5.03;;;;;;;;;;5116429;28;20023;-39
2022/04/08 05:56:34;;;;;;;10.98;5.70;;;;;;;;;;5117651;28;20076;-38
2022/04/08 05:59:00;;;;;;;8.95;6.10;;;;;;;;;;5117848;28;20031;-44
2022/04/08 06:01:26;;;;;;;9.95;6.22;;;;;;;;;;5117700;28;20027;-39
2022/04/08 06:03:53;;;;;;;10.77;5.35;;;;;;;;;;5117660;28;20020;-39
2022/04/08 06:06:19;;;;;;;10.68;5.32;;;;;;;;;;5117593;28;20519;-42
2022/04/08 06:08:47;;;;;;;9.93;6.10;;;;;;;;;;5117455;28;20032;-50
2022/04/08 06:11:14;;;;;;;10.60;5.53;;;;;;;;;;5117496;28;20402;-47
2022/04/08 06:13:40;;;;;;;9.13;5.45;;;;;;;;;;5117545;28;20023;-47
2022/04/08 06:16:06;;;;;;;8.00;4.93;;;;;;;;;;5117390;28;20028;-41
2022/04/08 06:18:33;;;;;;;6.07;3.70;;;;;;;;;;5117260;28;20485;-39
2022/04/08 06:21:01;;;;;;;6.43;4.15;;;;;;;;;;5117368;28;20032;-40
2022/04/08 06:23:29;;;;;;;5.25;3.95;;;;;;;;;;5117202;28;20027;-47
2022/04/08 06:25:55;;;;;;;7.78;4.07;;;;;;;;;;5117375;28;20016;-40
2022/04/08 06:28:21;;;;;;;7.07;5.05;;;;;;;;;;5117116;28;20078;-39
2022/04/08 06:30:48;;;;;;;7.50;4.55;;;;;;;;;;5117075;28;20475;-40
2022/04/08 06:33:15;;;;;;;7.97;4.80;;;;;;;;;;5117035;28;20047;-43
2022/04/08 06:35:41;;;;;;;8.80;5.70;;;;;;;;;;5116890;28;20051;-53
2022/04/08 06:38:08;;;;;;;12.60;6.03;;;;;;;;;;5116917;28;20020;-45
2022/04/08 06:40:38;;;;;;;8.60;5.07;;;;;;;;;;5116774;28;20027;-45
2022/04/08 06:43:05;;;;;;;9.88;4.85;;;;;;;;;;5116943;28;20072;-46
2022/04/08 06:45:34;;;;;;;8.57;4.25;;;;;;;;;;5116783;28;20027;-43
2022/04/08 06:48:00;;;;;;;10.48;5.63;;;;;;;;;;5116980;28;20470;-49
2022/04/08 06:50:26;;;;;;;14.20;7.00;;;;;;;;;;5116295;28;20044;-46
2022/04/08 06:52:55;;;;;;;17.23;6.78;;;;;;;;;;5116677;28;20028;-42
2022/04/08 06:55:24;;;;;;;11.68;6.22;;;;;;;;;;5116711;28;20026;-45
2022/04/08 06:57:50;;;;;;;27.60;11.85;;;;;;;;;;5116491;28;20356;-40
2022/04/08 07:00:17;;;;;;;28.45;13.65;;;;;;;;;;5116502;28;20098;-45
2022/04/08 07:02:43;;;;;;;16.77;9.40;;;;;;;;;;5116563;28;20027;-48
2022/04/08 07:05:09;;;;;;;16.17;7.85;;;;;;;;;;5116000;28;20028;-42
2022/04/08 07:07:36;;;;;;;19.02;7.82;;;;;;;;;;5116377;28;20020;-43
2022/04/08 07:10:03;;;;;;;17.23;7.00;;;;;;;;;;5116417;28;20063;-39
2022/04/08 07:12:29;;;;;;;18.90;8.73;;;;;;;;;;5116376;28;20027;-43
2022/04/08 07:14:56;;;;;;;22.60;11.65;;;;;;;;;;5116253;28;20024;-39
2022/04/08 07:17:34;;;;;;;25.63;12.88;;;;;;;;;;5116327;28;20024;-39
2022/04/08 07:20:00;;;;;;;19.83;10.68;;;;;;;;;;5115972;28;20027;-40
2022/04/08 07:22:26;;;;;;;26.90;12.07;;;;;;;;;;5116220;28;20024;-43
2022/04/08 07:24:53;;;;;;;17.95;9.20;;;;;;;;;;5115955;28;20479;-43
2022/04/08 07:27:25;;;;;;;15.60;8.35;;;;;;;;;;5115892;28;20030;-42
2022/04/08 07:29:58;;;;;;;13.43;6.50;;;;;;;;;;5116031;28;20496;-39
2022/04/08 07:32:24;;;;;;;17.05;9.20;;;;;;;;;;5115738;28;20432;-49
2022/04/08 07:34:51;;;;;;;14.38;8.13;;;;;;;;;;5116007;28;20058;-47
2022/04/08 07:37:27;;;;;;;21.15;12.10;;;;;;;;;;5115893;28;20018;-52
2022/04/08 07:39:54;;;;;;;18.52;8.63;;;;;;;;;;5116032;28;20024;-44
2022/04/08 07:42:20;;;;;;;18.85;10.05;;;;;;;;;;5111219;28;20015;-38
2022/04/08 07:44:46;;;;;;;11.70;6.88;;;;;;;;;;5099960;27;20028;-38
2022/04/08 07:47:12;;;;;;;14.32;5.55;;;;;;;;;;5135700;27;20114;-37
2022/04/08 07:49:38;;;;;;;10.80;6.18;;;;;;;;;;5117012;27;20047;-39
2022/04/08 07:52:04;;;;;;;12.18;6.85;;;;;;;;;;5135993;27;20027;-38
2022/04/08 07:54:30;;;;;;;15.60;6.50;;;;;;;;;;5135819;27;20027;-39
2022/04/08 07:56:56;;;;;;;17.48;7.45;;;;;;;;;;5124780;27;20031;-39
2022/04/08 07:59:22;;;;;;;13.50;6.22;;;;;;;;;;5106499;28;20016;-39
2022/04/08 08:01:49;;;;;;;12.60;5.13;;;;;;;;;;5107340;28;20028;-40
2022/04/08 08:04:15;;;;;;;14.68;7.50;;;;;;;;;;5110119;28;20032;-48
2022/04/08 08:06:42;;;;;;;14.70;6.05;;;;;;;;;;5105310;28;20084;-43
2022/04/08 08:09:08;;;;;;;11.57;4.63;;;;;;;;;;5102634;28;20468;-48
2022/04/08 08:11:34;;;;;;;52.08;24.15;;;;;;;;;;5105642;28;20487;-41
2022/04/08 08:14:00;;;;;;;11.77;6.05;;;;;;;;;;5105029;28;20024;-39
2022/04/08 08:16:26;;;;;;;23.25;8.60;;;;;;;;;;5103046;28;20026;-40
2022/04/08 08:18:56;;;;;;;33.75;16.13;;;;;;;;;;5109349;28;20069;-43
2022/04/08 08:21:23;;;;;;;18.15;7.40;;;;;;;;;;5109518;28;20107;-45
2022/04/08 08:23:49;;;;;;;17.73;7.85;;;;;;;;;;5108806;28;20383;-40
2022/04/08 08:26:16;;;;;;;16.30;7.78;;;;;;;;;;5108430;28;20012;-45
2022/04/08 08:28:49;;;;;;;18.35;7.88;;;;;;;;;;5108607;28;20032;-49
2022/04/08 08:31:17;;;;;;;20.17;8.48;;;;;;;;;;5109061;28;20030;-40
2022/04/08 08:33:43;;;;;;;24.08;11.65;;;;;;;;;;5109547;28;20505;-46
2022/04/08 08:36:10;;;;;;;55.90;21.77;;;;;;;;;;5107740;28;20382;-42
2022/04/08 08:38:36;;;;;;;40.40;17.30;;;;;;;;;;5108601;28;20091;-42
2022/04/08 08:41:05;;;;;;;35.88;14.65;;;;;;;;;;5109628;28;20031;-42
2022/04/08 08:43:31;;;;;;;66.95;26.60;;;;;;;;;;5109011;28;20027;-41
2022/04/08 08:45:57;;;;;;;88.32;35.05;;;;;;;;;;5107547;28;20055;-41
2022/04/08 08:48:24;;;;;;;185.40;73.70;;;;;;;;;;5114339;28;20102;-47
2022/04/08 08:50:55;;;;;;;114.90;46.08;;;;;;;;;;5114217;28;20047;-53
2022/04/08 08:53:21;;;;;;;94.78;35.15;;;;;;;;;;5114446;28;20421;-47
2022/04/08 08:55:50;;;;;;;56.45;22.00;;;;;;;;;;5114083;28;20103;-41
2022/04/08 08:58:17;;;;;;;110.93;41.83;;;;;;;;;;5114049;28;20026;-54
2022/04/08 09:00:46;;;;;;;32.40;13.13;;;;;;;;;;5113886;28;20379;-42
2022/04/08 09:03:13;;;;;;;51.45;17.42;;;;;;;;;;5114030;28;20024;-42
2022/04/08 09:05:42;;;;;;;67.90;23.75;;;;;;;;;;5114004;28;20031;-46
2022/04/08 09:08:11;;;;;;;106.60;33.33;;;;;;;;;;5114145;28;20026;-38
2022/04/08 09:10:37;;;;;;;70.35;24.13;;;;;;;;;;5113932;28;20119;-42
2022/04/08 09:13:04;;;;;;;108.93;36.45;;;;;;;;;;5113803;28;20024;-43
2022/04/08 09:15:40;;;;;;;69.45;26.27;;;;;;;;;;5113920;28;20026;-42
2022/04/08 09:18:09;;;;;;;132.95;43.33;;;;;;;;;;5113591;28;20039;-51
2022/04/08 09:20:42;;;;;;;69.80;25.15;;;;;;;;;;5114027;28;20019;-41
2022/04/08 09:23:09;;;;;;;56.00;18.83;;;;;;;;;;5113850;28;20360;-42
2022/04/08 09:25:35;;;;;;;63.28;22.52;;;;;;;;;;5108496;28;20019;-50
2022/04/08 09:28:27;;;;;;;69.40;25.25;;;;;;;;;;5109098;28;20034;-52
2022/04/08 09:30:55;;;;;;;75.07;29.70;;;;;;;;;;5108403;28;20048;-41
2022/04/08 09:33:23;;;;;;;84.75;35.40;;;;;;;;;;5105204;28;20020;-52
2022/04/08 09:35:52;;;;;;;53.92;23.83;;;;;;;;;;5105833;28;20043;-42
2022/04/08 09:38:19;;;;;;;33.08;13.05;;;;;;;;;;5110159;28;20494;-50
2022/04/08 09:40:48;;;;;;;35.00;15.38;;;;;;;;;;5113548;28;20016;-44
2022/04/08 09:43:14;;;;;;;30.20;12.35;;;;;;;;;;5112919;28;20024;-46
2022/04/08 09:45:41;;;;;;;25.50;11.23;;;;;;;;;;5113592;28;20100;-41
2022/04/08 09:48:10;;;;;;;30.30;11.95;;;;;;;;;;5113604;28;20030;-52
2022/04/08 09:50:39;;;;;;;30.60;12.98;;;;;;;;;;5113438;28;20058;-39
2022/04/08 09:53:06;;;;;;;28.63;14.02;;;;;;;;;;5113596;28;20027;-41
2022/04/08 09:55:32;;;;;;;54.85;23.15;;;;;;;;;;5107426;28;20048;-45
2022/04/08 09:58:00;;;;;;;30.65;12.40;;;;;;;;;;5109429;28;20024;-41
2022/04/08 10:00:32;;;;;;;46.10;20.40;;;;;;;;;;5103903;28;20486;-44
2022/04/08 10:03:01;;;;;;;46.33;21.60;;;;;;;;;;5109290;28;20024;-46
2022/04/08 10:05:28;;;;;;;14.20;7.13;;;;;;;;;;5104624;28;20050;-44
2022/04/08 10:07:57;;;;;;;49.53;20.48;;;;;;;;;;5098365;28;20016;-43
2022/04/08 10:10:26;;;;;;;36.55;16.55;;;;;;;;;;5104785;28;20119;-47
2022/04/08 10:12:55;;;;;;;12.35;5.55;;;;;;;;;;5106538;28;20031;-41
2022/04/08 10:15:21;;;;;;;51.20;22.48;;;;;;;;;;5111539;28;20035;-48
2022/04/08 10:18:00;;;;;;;49.90;21.75;;;;;;;;;;5065462;28;20535;-43
2022/04/08 10:20:28;;;;;;;68.72;31.95;;;;;;;;;;5082925;28;20032;-43
2022/04/08 10:23:05;;;;;;;60.20;29.13;;;;;;;;;;5082683;28;20027;-45
2022/04/08 10:25:47;;;;;;;277.65;136.88;;;;;;;;;;5082007;28;20055;-41
2022/04/08 10:28:14;;;;;;;109.00;49.50;;;;;;;;;;5081984;28;20098;-45
2022/04/08 10:31:00;;;;;;;138.10;62.10;;;;;;;;;;5087937;28;20031;-49
2022/04/08 10:33:28;;;;;;;27.88;12.32;;;;;;;;;;5093444;28;20491;-43
2022/04/08 10:36:00;;;;;;;16.90;6.82;;;;;;;;;;5092837;28;20069;-42
2022/04/08 10:38:37;;;;;;;25.15;10.60;;;;;;;;;;5092811;28;20074;-56
2022/04/08 10:41:08;;;;;;;34.58;15.98;;;;;;;;;;5096517;28;20027;-43
2022/04/08 10:43:34;;;;;;;;;;;;;;;;;;5096605;28;20032;-54
2022/04/08 10:46:08;;;;;;;13.80;6.28;;;;;;;;;;5096299;28;19911;-48
2022/04/08 10:48:37;;;;;;;51.80;23.42;;;;;;;;;;5095939;28;20027;-40
2022/04/08 10:51:07;;;;;;;43.33;16.13;;;;;;;;;;5104582;28;20538;-59
2022/04/08 10:53:34;;;;;;;36.17;17.23;;;;;;;;;;5113514;28;20459;-44
2022/04/08 10:56:08;;;;;;;25.55;11.88;;;;;;;;;;5116508;28;20039;-40
2022/04/08 10:58:35;;;;;;;9.18;4.20;;;;;;;;;;5116150;28;20023;-40
2022/04/08 11:01:13;;;;;;;64.38;29.48;;;;;;;;;;5116060;28;20379;-39
2022/04/08 11:03:45;;;;;;;11.77;5.07;;;;;;;;;;5110763;28;20391;-40
2022/04/08 11:06:12;;;;;;;15.70;5.63;;;;;;;;;;5109626;28;20531;-40
2022/04/08 11:08:38;;;;;;;27.20;13.35;;;;;;;;;;5111971;28;20106;-51
2022/04/08 11:11:04;;;;;;;44.13;19.25;;;;;;;;;;5108204;28;20059;-46
2022/04/08 11:13:30;;;;;;;36.97;16.08;;;;;;;;;;5121945;27;20076;-41
2022/04/08 11:15:57;;;;;;;30.75;14.95;;;;;;;;;;5123779;27;20027;-37
2022/04/08 11:18:26;;;;;;;23.35;11.15;;;;;;;;;;5104262;28;20023;-37
2022/04/08 11:20:52;;;;;;;5.93;3.00;;;;;;;;;;5109903;28;20039;-37
2022/04/08 11:23:26;;;;;;;7.90;3.88;;;;;;;;;;5108115;28;20024;-45
2022/04/08 11:25:52;;;;;;;7.55;2.47;;;;;;;;;;5115673;28;20030;-39
2022/04/08 11:28:21;;;;;;;14.57;4.82;;;;;;;;;;5114527;28;20104;-38
2022/04/08 11:30:47;;;;;;;13.63;6.22;;;;;;;;;;5110537;28;20043;-38
2022/04/08 11:33:18;;;;;;;21.95;8.32;;;;;;;;;;5095211;28;20027;-41
2022/04/08 11:35:44;;;;;;;8.98;4.10;;;;;;;;;;5115636;28;20019;-39
2022/04/08 11:38:18;;;;;;;17.52;5.35;;;;;;;;;;5115704;28;20047;-39
2022/04/08 11:40:44;;;;;;;30.20;15.23;;;;;;;;;;5115821;28;20023;-37
2022/04/08 11:43:15;;;;;;;23.40;10.15;;;;;;;;;;5111747;27;20024;-39
2022/04/08 11:45:41;;;;;;;59.25;28.17;;;;;;;;;;5109002;28;20574;-40
2022/04/08 11:48:13;;;;;;;32.97;14.48;;;;;;;;;;5106659;28;20095;-40
2022/04/08 11:50:40;;;;;;;34.47;15.63;;;;;;;;;;5109386;28;20047;-40
2022/04/08 11:53:13;;;;;;;16.95;8.30;;;;;;;;;;5105171;28;20062;-38
2022/04/08 11:55:39;;;;;;;14.15;5.80;;;;;;;;;;5113378;28;20016;-42
2022/04/08 11:58:17;;;;;;;21.38;8.60;;;;;;;;;;5115402;28;20473;-53
2022/04/08 12:00:43;;;;;;;7.18;2.40;;;;;;;;;;5115125;28;20023;-50
2022/04/08 12:03:10;;;;;;;16.90;6.47;;;;;;;;;;5115175;28;20538;-45
2022/04/08 12:05:44;;;;;;;10.10;4.35;;;;;;;;;;5115288;28;20054;-56
2022/04/08 12:08:13;;;;;;;23.00;7.95;;;;;;;;;;5115146;28;20034;-46
2022/04/08 12:10:39;;;;;;;40.65;16.85;;;;;;;;;;5115016;28;20070;-54
2022/04/08 12:13:14;;;;;;;18.40;7.10;;;;;;;;;;5119582;27;20416;-55
2022/04/08 12:15:47;;;;;;;16.40;6.30;;;;;;;;;;5135382;27;20035;-55
2022/04/08 12:18:20;;;;;;;22.67;8.77;;;;;;;;;;5107688;27;20033;-42
2022/04/08 12:26:24;;;;;;;105.47;53.40;;;;;;;;;;5272361;22;21060;-41
2022/04/08 12:28:51;;;;;;;12.52;6.20;;;;;;;;;;5024468;28;20045;-42
2022/04/08 12:31:18;;;;;;;35.05;15.00;;;;;;;;;;5023759;28;20052;-42
2022/04/08 12:33:44;;;;;;;16.35;8.38;;;;;;;;;;5023163;28;20811;-39
2022/04/08 12:36:11;;;;;;;102.90;58.63;;;;;;;;;;5023659;28;20746;-41
2022/04/08 12:38:42;;;;;;;21.92;10.50;;;;;;;;;;5023797;28;20029;-48
2022/04/08 12:41:10;;;;;;;37.37;16.20;;;;;;;;;;5023062;28;20789;-41
2022/04/08 12:43:36;;;;;;;10.07;4.32;;;;;;;;;;5023484;28;20021;-53
2022/04/08 12:46:02;;;;;;;6.00;3.40;;;;;;;;;;5023667;28;20033;-41
2022/04/08 12:48:28;;;;;;;23.55;12.77;;;;;;;;;;5023546;28;20020;-47
2022/04/08 12:50:56;;;;;;;13.50;6.00;;;;;;;;;;5023908;28;20420;-43
2022/04/08 12:53:22;;;;;;;11.25;5.50;;;;;;;;;;5023379;28;20118;-46
2022/04/08 12:55:49;;;;;;;7.57;3.30;;;;;;;;;;5022916;28;20236;-52
2022/04/08 12:58:16;;;;;;;10.88;4.03;;;;;;;;;;5023131;28;20029;-43
2022/04/08 13:00:42;;;;;;;13.93;6.68;;;;;;;;;;5022396;28;20021;-51
2022/04/08 13:03:11;;;;;;;15.13;4.55;;;;;;;;;;5022806;28;20033;-41
2022/04/08 13:05:37;;;;;;;6.05;2.70;;;;;;;;;;5022781;28;20079;-49
2022/04/08 13:08:03;;;;;;;9.70;4.78;;;;;;;;;;5022750;28;20032;-54
2022/04/08 13:10:29;;;;;;;7.40;2.88;;;;;;;;;;5022743;28;20037;-54
2022/04/08 13:12:55;;;;;;;12.68;5.15;;;;;;;;;;5022979;28;20056;-42
2022/04/08 13:15:21;;;;;;;9.27;3.22;;;;;;;;;;5023179;28;20051;-54
2022/04/08 13:17:47;;;;;;;6.25;2.90;;;;;;;;;;5022711;28;20191;-45
2022/04/08 13:20:13;;;;;;;9.70;2.55;;;;;;;;;;5022886;28;20209;-47
2022/04/08 13:22:39;;;;;;;6.32;2.05;;;;;;;;;;5022624;28;20033;-52
2022/04/08 13:25:05;;;;;;;6.22;2.50;;;;;;;;;;5023594;28;20545;-40
2022/04/08 13:27:32;;;;;;;13.02;6.07;;;;;;;;;;5022919;28;20033;-46
2022/04/08 13:29:58;;;;;;;13.73;5.32;;;;;;;;;;5022621;28;20515;-40
2022/04/08 13:32:24;;;;;;;35.45;18.63;;;;;;;;;;5022554;28;20473;-53
2022/04/08 13:34:50;;;;;;;41.17;21.60;;;;;;;;;;5022499;28;20033;-47
2022/04/08 13:37:16;;;;;;;66.30;33.72;;;;;;;;;;5022764;28;20026;-40
2022/04/08 13:39:43;;;;;;;27.50;15.52;;;;;;;;;;5022442;28;20087;-40
2022/04/08 13:42:09;;;;;;;40.22;19.85;;;;;;;;;;5023974;28;20096;-40
2022/04/08 13:44:35;;;;;;;35.90;16.70;;;;;;;;;;5022308;28;20045;-40
2022/04/08 13:47:02;;;;;;;8.45;5.03;;;;;;;;;;5022468;28;20025;-51
2022/04/08 13:49:28;;;;;;;21.48;13.68;;;;;;;;;;5021854;28;20029;-52
2022/04/08 13:51:54;;;;;;;31.95;17.40;;;;;;;;;;5023524;28;20037;-55
2022/04/08 13:54:21;;;;;;;9.32;5.45;;;;;;;;;;5022311;28;20025;-54
2022/04/08 13:56:47;;;;;;;31.20;16.85;;;;;;;;;;5022339;28;20029;-46
2022/04/08 13:59:13;;;;;;;19.08;8.48;;;;;;;;;;5022623;28;20053;-43
2022/04/08 14:01:39;;;;;;;8.80;4.38;;;;;;;;;;5022473;28;20029;-40
2022/04/08 14:04:10;;;;;;;11.68;5.03;;;;;;;;;;5022353;28;20026;-48
2022/04/08 14:06:37;;;;;;;10.65;4.22;;;;;;;;;;5022458;28;20029;-40
2022/04/08 14:09:04;;;;;;;14.68;6.75;;;;;;;;;;5022108;28;20036;-52
2022/04/08 14:11:31;;;;;;;13.32;5.80;;;;;;;;;;5022969;28;20056;-38
2022/04/08 14:13:57;;;;;;;8.68;3.22;;;;;;;;;;5024326;28;20388;-40
2022/04/08 14:16:23;;;;;;;6.22;2.83;;;;;;;;;;5026140;28;20029;-50
2022/04/08 14:18:49;;;;;;;16.63;8.60;;;;;;;;;;5026893;28;20025;-39
2022/04/08 14:21:15;;;;;;;7.15;3.83;;;;;;;;;;5026021;28;20026;-50
2022/04/08 14:23:44;;;;;;;21.85;10.48;;;;;;;;;;5026061;28;20097;-42
2022/04/08 14:26:11;;;;;;;11.93;6.25;;;;;;;;;;5025651;28;20077;-55
2022/04/08 14:28:37;;;;;;;9.02;3.85;;;;;;;;;;5027430;28;20025;-42
2022/04/08 14:31:03;;;;;;;16.48;7.93;;;;;;;;;;5026168;28;20083;-39
2022/04/08 14:33:30;;;;;;;16.25;9.07;;;;;;;;;;5025949;28;20068;-40
2022/04/08 14:35:59;;;;;;;13.18;6.38;;;;;;;;;;5025759;28;20029;-41